Hickory Valley, Louisiana
Current Conditions -  °F | °C
As of 7:15 AM on Thursday 18 Dec 2014 (Local Time) from KRSN Reporting Station
Overcast Overcast  
Wind Chill: 43°   Ceiling: 500
Heat Index: 43°   Visibility: 7mi
Dew Point: 43°   Wind: 3mph
Humidity: 100%   Direction: 40°NE
Pressure: 30.23"   Gusts: NA
Location:  32.0547°N, 92.4144°W
Report Text: KRSN 181315Z AUTO 04003KT 7SM OVC005 06/06 A3023 RMK AO2 T00610061
Loading
Personal Weather Stations






























Interactive Weather Map New forecast layout! Learn more

10-Day Weather Forecast

Advertisements
Track Severe Weather on mobile